createdAt,value
2018-03-28T00:00:33.763Z,90.70
2018-03-28T00:03:01.356Z,90.10
2018-03-28T00:05:29.248Z,90.30
2018-03-28T00:07:56.751Z,90.30
2018-03-28T00:10:24.259Z,90.50
2018-03-28T00:12:51.770Z,90.50
2018-03-28T00:15:19.278Z,90.70
2018-03-28T00:17:46.778Z,91.10
2018-03-28T00:20:14.268Z,90.90
2018-03-28T00:22:42.152Z,91.20
2018-03-28T00:25:10.387Z,91.20
2018-03-28T00:27:37.875Z,91.40
2018-03-28T00:30:05.375Z,91.30
2018-03-28T00:32:32.892Z,91.30
2018-03-28T00:35:00.461Z,91.30
2018-03-28T00:37:27.973Z,91.20
2018-03-28T00:39:55.511Z,91.10
2018-03-28T00:42:23.025Z,91.40
2018-03-28T00:44:50.621Z,91.70
2018-03-28T00:47:18.104Z,91.00
2018-03-28T00:49:45.598Z,90.50
2018-03-28T00:52:13.107Z,90.70
2018-03-28T00:54:40.608Z,91.20
2018-03-28T00:57:08.119Z,90.60
2018-03-28T00:59:35.620Z,90.70
2018-03-28T01:02:03.130Z,90.70
2018-03-28T01:04:30.635Z,91.30
2018-03-28T01:06:58.687Z,90.50
2018-03-28T01:09:26.194Z,90.50
2018-03-28T01:11:53.691Z,90.90
2018-03-28T01:14:21.189Z,91.00
2018-03-28T01:16:48.699Z,90.90
2018-03-28T01:19:16.194Z,91.00
2018-03-28T01:21:43.687Z,91.30
2018-03-28T01:24:13.446Z,91.40
2018-03-28T01:26:40.951Z,90.20
2018-03-28T01:29:09.041Z,90.40
2018-03-28T01:31:36.535Z,90.20
2018-03-28T01:34:05.255Z,90.40
2018-03-28T01:36:32.779Z,90.40
2018-03-28T01:39:00.697Z,90.30
2018-03-28T01:41:28.227Z,90.40
2018-03-28T01:43:55.733Z,90.50
2018-03-28T01:46:23.260Z,90.60
2018-03-28T01:48:50.796Z,90.80
2018-03-28T01:51:18.333Z,90.90
2018-03-28T01:53:46.241Z,91.10
2018-03-28T01:56:13.746Z,91.10
2018-03-28T01:58:41.261Z,90.40
2018-03-28T02:01:08.748Z,90.40
2018-03-28T02:03:36.247Z,90.10
2018-03-28T02:06:03.731Z,90.00
2018-03-28T02:08:31.232Z,90.10
2018-03-28T02:10:58.723Z,90.00
2018-03-28T02:13:26.239Z,89.90
2018-03-28T02:15:53.731Z,90.10
2018-03-28T02:18:21.222Z,89.60
2018-03-28T02:20:48.729Z,89.80
2018-03-28T02:23:16.659Z,89.50
2018-03-28T02:25:44.175Z,89.50
2018-03-28T02:28:11.702Z,90.00
2018-03-28T02:30:39.228Z,89.50
2018-03-28T02:33:06.736Z,89.80
2018-03-28T02:35:34.643Z,89.80
2018-03-28T02:38:02.144Z,89.80
2018-03-28T02:40:30.054Z,90.90
2018-03-28T02:42:57.559Z,90.90
2018-03-28T02:45:25.085Z,90.50
2018-03-28T02:47:52.597Z,90.90
2018-03-28T02:50:20.494Z,90.60
2018-03-28T02:52:47.984Z,90.50
2018-03-28T02:55:15.493Z,90.20
2018-03-28T02:57:42.996Z,90.50
2018-03-28T03:00:10.497Z,90.70
2018-03-28T03:02:38.393Z,90.90
2018-03-28T03:05:05.887Z,90.90
2018-03-28T03:07:33.418Z,91.30
2018-03-28T03:10:00.911Z,91.50
2018-03-28T03:12:28.400Z,91.40
2018-03-28T03:14:55.896Z,91.60
2018-03-28T03:17:23.450Z,91.60
2018-03-28T03:19:50.944Z,91.90
2018-03-28T03:22:18.480Z,91.90
2018-03-28T03:24:45.995Z,91.90
2018-03-28T03:27:13.489Z,92.10
2018-03-28T03:29:41.023Z,92.10
2018-03-28T03:32:08.515Z,92.20
2018-03-28T03:34:35.994Z,92.20
2018-03-28T03:37:03.921Z,92.50
2018-03-28T03:39:31.399Z,92.50
2018-03-28T03:41:58.913Z,92.30
2018-03-28T03:44:26.411Z,92.30
2018-03-28T03:46:53.903Z,92.40
2018-03-28T03:49:21.415Z,93.10
2018-03-28T03:51:48.915Z,93.10
2018-03-28T03:54:16.799Z,93.60
2018-03-28T03:56:44.303Z,93.60
2018-03-28T03:59:11.789Z,93.70
2018-03-28T04:01:39.681Z,94.00
2018-03-28T04:04:07.182Z,94.00
2018-03-28T04:06:37.257Z,94.30
2018-03-28T04:09:05.403Z,94.30
2018-03-28T04:11:33.301Z,95.00
2018-03-28T04:16:34.811Z,95.00
2018-03-28T04:19:02.300Z,95.10
2018-03-28T04:21:29.808Z,95.20
2018-03-28T04:23:57.320Z,95.20
2018-03-28T04:26:25.223Z,95.70
2018-03-28T04:28:52.731Z,95.70
2018-03-28T04:31:20.719Z,95.60
2018-03-28T04:33:48.237Z,95.60
2018-03-28T04:36:15.746Z,95.70
2018-03-28T04:38:43.254Z,95.60
2018-03-28T04:41:10.750Z,95.80
2018-03-28T04:43:38.282Z,95.90
2018-03-28T04:46:06.199Z,96.10
2018-03-28T04:48:33.714Z,96.10
2018-03-28T04:51:01.606Z,96.10
2018-03-28T04:53:29.103Z,96.10
2018-03-28T04:55:56.611Z,96.10
2018-03-28T04:58:24.100Z,96.20
2018-03-28T05:00:51.598Z,96.30
2018-03-28T05:03:19.112Z,96.30
2018-03-28T05:05:46.636Z,96.40
2018-03-28T05:08:14.271Z,96.40
2018-03-28T05:10:42.236Z,96.20
2018-03-28T05:13:09.781Z,96.20
2018-03-28T05:15:37.452Z,96.30
2018-03-28T05:18:04.944Z,96.20
2018-03-28T05:20:32.712Z,96.60
2018-03-28T05:23:00.242Z,96.50
2018-03-28T05:25:28.373Z,96.70
2018-03-28T05:27:55.887Z,96.70
2018-03-28T05:30:23.817Z,97.00
2018-03-28T05:32:51.402Z,97.00
2018-03-28T05:35:18.911Z,97.00
2018-03-28T05:37:46.406Z,97.00
2018-03-28T05:40:13.912Z,97.00
2018-03-28T05:42:42.201Z,97.00
2018-03-28T05:45:10.173Z,97.00
2018-03-28T05:47:38.079Z,97.00
2018-03-28T05:50:06.008Z,97.00
2018-03-28T05:52:33.621Z,97.00
2018-03-28T05:55:01.103Z,97.00
2018-03-28T05:57:28.636Z,97.00
2018-03-28T05:59:56.546Z,97.00
2018-03-28T06:02:24.056Z,97.00
2018-03-28T06:04:51.984Z,97.00
2018-03-28T06:07:19.477Z,97.00
2018-03-28T06:09:47.382Z,97.00
2018-03-28T06:12:14.920Z,97.00
2018-03-28T06:14:42.474Z,97.00
2018-03-28T06:17:10.448Z,97.00
2018-03-28T06:19:38.340Z,97.00
2018-03-28T06:22:05.943Z,97.00
2018-03-28T06:24:33.537Z,97.00
2018-03-28T06:27:01.047Z,97.00
2018-03-28T06:29:28.555Z,97.00
2018-03-28T06:31:56.067Z,97.00
2018-03-28T06:34:23.575Z,97.00
2018-03-28T06:36:51.080Z,97.00
2018-03-28T06:39:18.616Z,97.00
2018-03-28T06:41:46.228Z,97.00
2018-03-28T06:44:14.115Z,97.00
2018-03-28T06:46:41.628Z,97.00
2018-03-28T06:49:09.118Z,97.00
2018-03-28T06:51:36.619Z,97.00
2018-03-28T06:54:04.139Z,97.00
2018-03-28T06:56:31.662Z,97.00
2018-03-28T06:58:59.203Z,97.00
2018-03-28T07:01:26.690Z,97.00
2018-03-28T07:03:54.584Z,97.00
2018-03-28T07:06:22.083Z,97.00
2018-03-28T07:08:49.644Z,97.00
2018-03-28T07:11:17.164Z,97.00
2018-03-28T07:13:44.661Z,97.00
2018-03-28T07:16:12.194Z,97.00
2018-03-28T07:18:39.682Z,97.00
2018-03-28T07:21:07.191Z,97.00
2018-03-28T07:23:34.715Z,97.00
2018-03-28T07:26:02.607Z,97.00
2018-03-28T07:28:30.124Z,97.00
2018-03-28T07:30:57.709Z,97.00
2018-03-28T07:33:25.233Z,97.00
2018-03-28T07:35:52.769Z,97.00
2018-03-28T07:38:20.273Z,97.00
2018-03-28T07:40:48.176Z,97.00
2018-03-28T07:43:16.448Z,97.00
2018-03-28T07:45:43.936Z,97.00
2018-03-28T07:48:11.427Z,97.00
2018-03-28T07:50:38.943Z,97.00
2018-03-28T07:53:06.431Z,97.00
2018-03-28T07:55:33.935Z,97.00
2018-03-28T07:58:01.430Z,97.00
2018-03-28T08:00:28.935Z,97.00
2018-03-28T08:02:56.431Z,97.00
2018-03-28T08:05:24.015Z,97.00
2018-03-28T08:07:51.531Z,97.00
2018-03-28T08:10:19.035Z,97.00
2018-03-28T08:12:46.534Z,97.00
2018-03-28T08:15:14.052Z,97.00
2018-03-28T08:17:41.544Z,97.00
2018-03-28T08:20:09.071Z,97.00
2018-03-28T08:22:37.261Z,97.00
2018-03-28T08:25:05.137Z,97.00
2018-03-28T08:27:34.093Z,97.00
2018-03-28T08:30:01.620Z,97.00
2018-03-28T08:32:29.128Z,97.00
2018-03-28T08:34:57.016Z,97.00
2018-03-28T08:37:24.696Z,97.00
2018-03-28T08:39:52.206Z,97.00
2018-03-28T08:42:21.227Z,97.00
2018-03-28T08:44:48.800Z,97.00
2018-03-28T08:47:16.310Z,97.00
2018-03-28T08:49:44.331Z,97.00
2018-03-28T08:52:11.969Z,97.00
2018-03-28T08:54:39.506Z,97.00
2018-03-28T08:57:07.483Z,97.00
2018-03-28T08:59:35.010Z,97.00
2018-03-28T09:02:03.354Z,97.00
2018-03-28T09:04:30.875Z,97.00
2018-03-28T09:06:58.824Z,97.00
2018-03-28T09:09:26.315Z,97.00
2018-03-28T09:11:53.896Z,97.00
2018-03-28T09:14:21.426Z,97.00
2018-03-28T09:16:49.316Z,97.00
2018-03-28T09:19:16.835Z,97.00
2018-03-28T09:21:45.299Z,97.00
2018-03-28T09:24:12.807Z,97.00
2018-03-28T09:26:40.321Z,97.00
2018-03-28T09:29:07.846Z,97.00
2018-03-28T09:31:35.530Z,97.00
2018-03-28T09:34:03.434Z,97.00
2018-03-28T09:36:31.028Z,96.70
2018-03-28T09:38:58.536Z,96.60
2018-03-28T09:41:26.673Z,93.70
2018-03-28T09:43:54.364Z,93.70
2018-03-28T09:46:22.036Z,93.80
2018-03-28T09:48:49.583Z,91.80
2018-03-28T09:51:17.520Z,91.20
2018-03-28T09:53:46.054Z,91.20
2018-03-28T09:56:13.575Z,91.60
2018-03-28T09:58:41.085Z,91.20
2018-03-28T10:01:08.578Z,90.60
2018-03-28T10:03:52.173Z,90.50
2018-03-28T10:06:19.788Z,89.60
2018-03-28T10:08:47.283Z,90.10
2018-03-28T10:11:14.795Z,88.50
2018-03-28T10:13:42.292Z,88.70
2018-03-28T10:16:09.818Z,88.10
2018-03-28T10:18:37.329Z,88.10
2018-03-28T10:21:04.851Z,88.30
2018-03-28T10:23:32.744Z,87.20
2018-03-28T10:26:00.236Z,87.20
2018-03-28T10:28:27.771Z,86.70
2018-03-28T10:30:55.301Z,86.90
2018-03-28T10:33:22.843Z,86.30
2018-03-28T10:35:50.769Z,86.20
2018-03-28T10:38:18.284Z,86.20
2018-03-28T10:40:45.801Z,85.80
2018-03-28T10:43:13.315Z,84.60
2018-03-28T10:45:40.822Z,83.40
2018-03-28T10:48:08.321Z,82.80
2018-03-28T10:50:35.828Z,81.60
2018-03-28T10:53:04.336Z,82.30
2018-03-28T10:55:32.236Z,79.70
2018-03-28T10:57:59.738Z,79.70
2018-03-28T11:00:27.289Z,79.80
2018-03-28T11:02:54.812Z,79.50
2018-03-28T11:05:22.314Z,79.90
2018-03-28T11:07:49.846Z,80.10
2018-03-28T11:10:17.330Z,79.60
2018-03-28T11:12:44.835Z,79.80
2018-03-28T11:15:12.356Z,80.40
2018-03-28T11:17:39.879Z,79.30
2018-03-28T11:20:07.387Z,78.50
2018-03-28T11:22:35.297Z,79.30
2018-03-28T11:25:02.803Z,79.40
2018-03-28T11:27:30.308Z,79.30
2018-03-28T11:29:57.807Z,79.60
2018-03-28T11:32:25.314Z,79.70
2018-03-28T11:34:52.881Z,79.70
2018-03-28T11:37:20.443Z,80.10
2018-03-28T11:39:48.383Z,78.80
2018-03-28T11:42:15.888Z,78.80
2018-03-28T11:44:43.415Z,79.30
2018-03-28T11:47:10.975Z,78.90
2018-03-28T11:49:38.488Z,79.60
2018-03-28T11:52:05.992Z,80.10
2018-03-28T11:54:33.488Z,80.00
2018-03-28T11:57:01.051Z,81.30
2018-03-28T11:59:28.556Z,79.80
2018-03-28T12:01:56.078Z,80.30
2018-03-28T12:04:23.602Z,79.80
2018-03-28T12:06:51.124Z,79.40
2018-03-28T12:09:18.624Z,78.90
2018-03-28T12:11:46.125Z,78.50
2018-03-28T12:14:13.634Z,78.60
2018-03-28T12:16:41.159Z,77.10
2018-03-28T12:19:08.672Z,77.70
2018-03-28T12:21:36.155Z,77.10
2018-03-28T12:24:03.667Z,76.50
2018-03-28T12:26:31.182Z,75.40
2018-03-28T12:28:58.703Z,74.80
2018-03-28T12:31:26.193Z,74.70
2018-03-28T12:33:53.709Z,73.80
2018-03-28T12:36:21.203Z,72.90
2018-03-28T12:38:49.100Z,73.20
2018-03-28T12:41:16.621Z,73.20
2018-03-28T12:43:44.504Z,73.40
2018-03-28T12:46:12.016Z,73.40
2018-03-28T12:48:39.527Z,74.00
2018-03-28T12:51:07.051Z,74.60
2018-03-28T12:53:34.944Z,74.70
2018-03-28T12:56:02.462Z,74.70
2018-03-28T12:58:29.958Z,74.70
2018-03-28T13:01:00.482Z,74.50
2018-03-28T13:03:28.051Z,74.70
2018-03-28T13:05:55.499Z,74.40
2018-03-28T13:08:23.003Z,73.60
2018-03-28T13:10:50.516Z,74.70
2018-03-28T13:13:18.029Z,74.60
2018-03-28T13:15:46.413Z,75.10
2018-03-28T13:18:13.910Z,76.10
2018-03-28T13:20:41.478Z,77.30
2018-03-28T13:23:09.027Z,77.00
2018-03-28T13:25:36.531Z,78.50
2018-03-28T13:28:04.039Z,79.90
2018-03-28T13:30:31.546Z,80.90
2018-03-28T13:32:59.057Z,82.00
2018-03-28T13:35:26.563Z,83.10
2018-03-28T13:37:54.068Z,84.10
2018-03-28T13:40:21.655Z,84.80
2018-03-28T13:42:49.169Z,85.40
2018-03-28T13:45:19.101Z,85.80
2018-03-28T13:47:46.591Z,85.80
2018-03-28T13:50:14.086Z,85.80
2018-03-28T13:52:41.571Z,86.70
2018-03-28T13:55:09.067Z,87.70
2018-03-28T13:57:36.566Z,87.40
2018-03-28T14:00:04.179Z,87.60
2018-03-28T14:02:31.639Z,87.20
2018-03-28T14:04:59.132Z,88.80
2018-03-28T14:07:27.069Z,89.60
2018-03-28T14:09:54.572Z,89.60
2018-03-28T14:12:22.490Z,87.90
2018-03-28T14:14:49.983Z,87.90
2018-03-28T14:17:17.913Z,89.20
2018-03-28T14:19:45.417Z,89.20
2018-03-28T14:22:13.312Z,89.60
2018-03-28T14:24:40.828Z,89.60
2018-03-28T14:27:08.742Z,91.10
2018-03-28T14:29:36.274Z,91.10
2018-03-28T14:32:04.154Z,91.00
2018-03-28T14:34:31.668Z,91.40
2018-03-28T14:36:59.173Z,92.00
2018-03-28T14:39:26.838Z,91.80
2018-03-28T14:41:54.332Z,93.00
2018-03-28T14:44:21.892Z,92.10
2018-03-28T14:46:49.389Z,92.50
2018-03-28T14:49:16.908Z,93.10
2018-03-28T14:51:44.414Z,93.40
2018-03-28T14:54:11.915Z,93.80
2018-03-28T14:56:39.445Z,94.80
2018-03-28T14:59:06.989Z,94.40
2018-03-28T15:01:34.479Z,95.10
2018-03-28T15:04:01.999Z,95.40
2018-03-28T15:06:29.512Z,95.40
2018-03-28T15:08:57.015Z,95.90
2018-03-28T15:11:24.531Z,96.00
2018-03-28T15:13:52.034Z,96.00
2018-03-28T15:16:19.516Z,96.50
2018-03-28T15:18:47.011Z,96.90
2018-03-28T15:21:14.504Z,96.60
2018-03-28T15:23:42.007Z,96.90
2018-03-28T15:26:09.506Z,97.00
2018-03-28T15:28:37.013Z,97.00
2018-03-28T15:31:04.510Z,97.00
2018-03-28T15:33:32.047Z,97.00
2018-03-28T15:35:59.547Z,96.90
2018-03-28T15:38:27.050Z,97.00
2018-03-28T15:40:54.555Z,97.00
2018-03-28T15:43:22.044Z,97.00
2018-03-28T15:45:49.564Z,97.00
2018-03-28T15:48:17.051Z,97.00
2018-03-28T15:50:44.554Z,97.00
2018-03-28T15:53:12.047Z,97.00
2018-03-28T15:55:39.553Z,97.00
2018-03-28T15:58:07.042Z,97.00
2018-03-28T16:00:34.938Z,97.00
2018-03-28T16:03:02.464Z,97.00
2018-03-28T16:05:30.344Z,97.00
2018-03-28T16:07:57.838Z,97.00
2018-03-28T16:10:25.339Z,97.00
2018-03-28T16:12:53.236Z,97.00
2018-03-28T16:15:20.725Z,97.00
2018-03-28T16:17:48.264Z,97.00
2018-03-28T16:20:15.756Z,97.00
2018-03-28T16:22:43.264Z,97.00
2018-03-28T16:25:10.757Z,97.00
2018-03-28T16:27:38.247Z,97.00
2018-03-28T16:30:06.152Z,97.00
2018-03-28T16:32:33.676Z,97.00
2018-03-28T16:35:01.578Z,97.00
2018-03-28T16:37:29.074Z,97.00
2018-03-28T16:39:56.574Z,97.00
2018-03-28T16:42:24.087Z,97.00
2018-03-28T16:44:51.601Z,97.00
2018-03-28T16:47:19.115Z,97.00
2018-03-28T16:49:46.851Z,97.00
2018-03-28T16:52:14.344Z,97.00
2018-03-28T16:54:42.264Z,97.00
2018-03-28T16:57:09.767Z,97.00
2018-03-28T16:59:37.680Z,97.00
2018-03-28T17:02:05.226Z,97.00
2018-03-28T17:04:32.719Z,97.00
2018-03-28T17:07:00.248Z,97.00
2018-03-28T17:09:27.739Z,97.00
2018-03-28T17:11:55.303Z,97.00
2018-03-28T17:14:22.960Z,97.00
2018-03-28T17:16:50.489Z,97.00
2018-03-28T17:19:17.990Z,97.00
2018-03-28T17:21:45.891Z,97.00
2018-03-28T17:24:13.441Z,97.00
2018-03-28T17:26:41.348Z,97.00
2018-03-28T17:29:08.843Z,97.00
2018-03-28T17:31:36.379Z,97.00
2018-03-28T17:34:03.876Z,97.00
2018-03-28T17:36:31.371Z,97.00
2018-03-28T17:38:58.900Z,97.00
2018-03-28T17:41:26.796Z,96.80
2018-03-28T17:43:54.329Z,96.80
2018-03-28T17:46:21.832Z,96.80
2018-03-28T17:48:49.323Z,97.00
2018-03-28T17:51:17.252Z,96.40
2018-03-28T17:53:44.751Z,96.40
2018-03-28T17:56:12.674Z,96.40
2018-03-28T17:58:40.163Z,96.40
2018-03-28T18:01:08.104Z,96.60
2018-03-28T18:03:35.604Z,96.60
2018-03-28T18:06:03.116Z,96.80
2018-03-28T18:08:30.617Z,97.00
2018-03-28T18:10:58.531Z,97.00
2018-03-28T18:13:26.035Z,97.00
2018-03-28T18:15:53.940Z,96.80
2018-03-28T18:18:21.627Z,96.90
2018-03-28T18:20:49.120Z,96.70
2018-03-28T18:23:17.026Z,97.00
2018-03-28T18:25:45.573Z,97.00
2018-03-28T18:28:13.147Z,97.00
2018-03-28T18:30:40.666Z,97.00
2018-03-28T18:33:08.166Z,97.00
2018-03-28T18:35:35.676Z,97.00
2018-03-28T18:38:03.182Z,97.00
2018-03-28T18:40:30.720Z,97.00
2018-03-28T18:42:58.236Z,96.90
2018-03-28T18:45:25.743Z,97.00
2018-03-28T18:47:53.292Z,97.00
2018-03-28T18:50:20.831Z,97.00
2018-03-28T18:52:48.787Z,97.00
2018-03-28T18:55:16.299Z,97.00
2018-03-28T18:57:43.822Z,97.00
2018-03-28T19:00:11.341Z,97.00
2018-03-28T19:02:40.208Z,97.00
2018-03-28T19:05:07.859Z,97.00
2018-03-28T19:07:35.378Z,97.00
2018-03-28T19:10:02.902Z,97.00
2018-03-28T19:12:30.391Z,97.00
2018-03-28T19:14:57.900Z,97.00
2018-03-28T19:17:25.424Z,97.00
2018-03-28T19:19:53.314Z,97.00
2018-03-28T19:22:20.796Z,97.00
2018-03-28T19:24:48.311Z,97.00
2018-03-28T19:27:16.199Z,97.00
2018-03-28T19:29:43.712Z,97.00
2018-03-28T19:32:11.224Z,97.00
2018-03-28T19:34:38.722Z,97.00
2018-03-28T19:37:06.221Z,97.00
2018-03-28T19:39:33.788Z,97.00
2018-03-28T19:42:01.296Z,97.00
2018-03-28T19:44:28.795Z,97.00
2018-03-28T19:46:56.324Z,97.00
2018-03-28T19:49:23.836Z,97.00
2018-03-28T19:51:51.332Z,97.00
2018-03-28T19:54:18.832Z,97.00
2018-03-28T19:56:46.339Z,97.00
2018-03-28T19:59:13.841Z,97.00
2018-03-28T20:01:41.673Z,97.00
2018-03-28T20:04:09.171Z,97.00
2018-03-28T20:06:37.387Z,97.00
2018-03-28T20:09:05.703Z,97.00
2018-03-28T20:11:33.226Z,97.00
2018-03-28T20:14:01.140Z,97.00
2018-03-28T20:16:28.668Z,97.00
2018-03-28T20:18:56.207Z,97.00
2018-03-28T20:21:23.707Z,97.00
2018-03-28T20:23:51.232Z,97.00
2018-03-28T20:26:18.732Z,97.00
2018-03-28T20:28:46.220Z,97.00
2018-03-28T20:31:13.740Z,97.00
2018-03-28T20:33:41.236Z,97.00
2018-03-28T20:36:08.740Z,97.00
2018-03-28T20:38:36.255Z,97.00
2018-03-28T20:41:03.784Z,97.00
2018-03-28T20:43:31.301Z,97.00
2018-03-28T20:45:59.200Z,97.00
2018-03-28T20:48:26.751Z,97.00
2018-03-28T20:50:54.264Z,97.00
2018-03-28T20:53:21.770Z,97.00
2018-03-28T20:55:49.273Z,97.00
2018-03-28T20:58:16.791Z,97.00
2018-03-28T21:00:44.327Z,97.00
2018-03-28T21:03:11.799Z,97.00
2018-03-28T21:05:39.304Z,97.00
2018-03-28T21:08:08.614Z,97.00
2018-03-28T21:10:36.135Z,97.00
2018-03-28T21:13:03.700Z,97.00
2018-03-28T21:15:31.188Z,97.00
2018-03-28T21:17:58.736Z,97.00
2018-03-28T21:20:26.237Z,97.00
2018-03-28T21:22:53.740Z,97.00
2018-03-28T21:25:21.299Z,97.00
2018-03-28T21:27:48.783Z,96.10
2018-03-28T21:30:16.280Z,96.30
2018-03-28T21:32:43.813Z,96.30
2018-03-28T21:35:11.792Z,97.00
2018-03-28T21:37:39.678Z,97.00
2018-03-28T21:40:07.180Z,97.00
2018-03-28T21:42:34.699Z,96.50
2018-03-28T21:45:02.186Z,96.20
2018-03-28T21:47:29.687Z,95.20
2018-03-28T21:49:57.580Z,94.50
2018-03-28T21:52:25.096Z,94.50
2018-03-28T21:54:52.980Z,95.20
2018-03-28T21:57:20.469Z,95.20
2018-03-28T21:59:47.979Z,94.40
2018-03-28T22:02:15.896Z,94.90
2018-03-28T22:04:43.391Z,94.90
2018-03-28T22:07:10.875Z,95.30
2018-03-28T22:09:38.361Z,95.40
2018-03-28T22:12:05.855Z,95.50
2018-03-28T22:14:33.345Z,95.90
2018-03-28T22:17:01.228Z,95.30
2018-03-28T22:19:28.732Z,95.30
2018-03-28T22:21:56.234Z,95.10
2018-03-28T22:24:23.723Z,95.10
2018-03-28T22:26:51.203Z,95.00
2018-03-28T22:29:18.705Z,95.30
2018-03-28T22:31:46.182Z,95.70
2018-03-28T22:34:13.672Z,95.70
2018-03-28T22:36:41.160Z,95.50
2018-03-28T22:39:09.047Z,95.80
2018-03-28T22:41:36.547Z,95.80
2018-03-28T22:44:04.105Z,95.40
2018-03-28T22:46:31.651Z,95.10
2018-03-28T22:48:59.127Z,95.30
2018-03-28T22:51:26.620Z,95.30
2018-03-28T22:53:54.497Z,95.80
2018-03-28T22:56:22.016Z,95.80
2018-03-28T22:58:49.524Z,95.20
2018-03-28T23:01:17.011Z,95.70
2018-03-28T23:03:44.500Z,95.40
2018-03-28T23:06:12.019Z,94.60
2018-03-28T23:08:39.516Z,95.00
2018-03-28T23:11:07.025Z,94.90
2018-03-28T23:13:34.515Z,95.00
2018-03-28T23:16:01.998Z,95.10
2018-03-28T23:18:29.920Z,95.50
2018-03-28T23:20:57.392Z,95.50
2018-03-28T23:23:24.870Z,95.50
2018-03-28T23:25:52.752Z,95.60
2018-03-28T23:28:20.255Z,95.60
2018-03-28T23:30:47.783Z,95.60
2018-03-28T23:33:15.304Z,95.60
2018-03-28T23:35:43.219Z,95.40
2018-03-28T23:38:10.748Z,95.40
2018-03-28T23:40:38.263Z,95.60
2018-03-28T23:43:05.750Z,95.70
2018-03-28T23:45:33.640Z,95.40
2018-03-28T23:48:01.123Z,95.40
2018-03-28T23:50:28.621Z,94.90
2018-03-28T23:52:56.530Z,95.40
2018-03-28T23:55:24.028Z,95.40
2018-03-28T23:57:51.523Z,95.90
